Time;durP1;ratioP1;P1;durP2;ratioP2;P2;SDS_P1;SDS_P2;PMS_P1;PMS_P2;Temp;Humidity;BMP_temperature;BMP_pressure;BME280_temperature;BME280_humidity;BME280_pressure;Samples;Min_cycle;Max_cycle;Signal;HPM_P1;HPM_P2
2022/03/21 00:00:46;;;;;;;46.05;29.05;;;3.40;99.90;;;;;;4950903;29;20066;-71
2022/03/21 00:03:14;;;;;;;47.50;31.08;;;3.40;99.90;;;;;;4941109;29;20052;-71
2022/03/21 00:05:42;;;;;;;46.63;31.73;;;3.40;99.90;;;;;;4969117;28;20047;-71
2022/03/21 00:08:11;;;;;;;52.15;31.55;;;3.30;99.90;;;;;;4967511;28;20050;-71
2022/03/21 00:10:39;;;;;;;42.78;27.63;;;3.30;99.90;;;;;;4945478;28;20508;-71
2022/03/21 00:13:06;;;;;;;49.40;30.50;;;3.30;99.90;;;;;;4951053;29;20071;-71
2022/03/21 00:15:33;;;;;;;46.22;30.00;;;3.20;99.90;;;;;;4938279;29;20039;-71
2022/03/21 00:18:02;;;;;;;44.63;28.85;;;3.20;99.90;;;;;;4965976;28;20048;-71
2022/03/21 00:20:29;;;;;;;54.30;31.33;;;3.20;99.90;;;;;;4966000;28;20067;-70
2022/03/21 00:22:56;;;;;;;42.85;29.80;;;3.10;99.90;;;;;;4956312;28;20499;-71
2022/03/21 00:25:23;;;;;;;44.85;30.40;;;3.10;99.90;;;;;;4928390;29;20051;-71
2022/03/21 00:27:53;;;;;;;39.47;27.65;;;3.10;99.90;;;;;;4939858;29;20040;-72
2022/03/21 00:30:20;;;;;;;45.00;28.02;;;3.10;99.90;;;;;;4954251;29;20070;-70
2022/03/21 00:32:47;;;;;;;46.63;27.55;;;3.00;99.90;;;;;;4936309;29;20051;-71
2022/03/21 00:35:17;;;;;;;40.88;28.48;;;3.00;99.90;;;;;;4967913;28;20418;-70
2022/03/21 00:37:44;;;;;;;45.50;28.73;;;3.00;99.90;;;;;;4968508;28;20126;-70
2022/03/21 00:40:12;;;;;;;42.70;29.15;;;3.00;99.90;;;;;;4951143;29;20047;-70
2022/03/21 00:42:40;;;;;;;47.10;29.55;;;2.90;99.90;;;;;;4953645;29;20047;-71
2022/03/21 00:45:09;;;;;;;43.78;27.80;;;2.90;99.90;;;;;;4936509;29;20070;-70
2022/03/21 00:47:36;;;;;;;47.38;29.38;;;2.80;99.90;;;;;;4917401;29;20484;-70
2022/03/21 00:50:04;;;;;;;41.00;27.10;;;2.80;99.90;;;;;;4950011;29;20055;-70
2022/03/21 00:52:32;;;;;;;43.47;28.08;;;2.70;99.90;;;;;;4942568;29;20051;-71
2022/03/21 00:55:00;;;;;;;44.22;27.65;;;2.70;99.90;;;;;;4922605;29;20488;-72
2022/03/21 00:57:26;;;;;;;41.20;26.52;;;2.70;99.90;;;;;;4937195;29;20058;-71
2022/03/21 00:59:53;;;;;;;42.42;28.58;;;2.70;99.90;;;;;;4943563;29;20487;-71
2022/03/21 01:02:22;;;;;;;43.45;27.35;;;2.70;99.90;;;;;;4948897;29;20146;-70
2022/03/21 01:04:53;;;;;;;43.58;27.80;;;2.70;99.90;;;;;;4948362;29;20053;-70
2022/03/21 01:07:20;;;;;;;42.22;26.42;;;2.70;99.90;;;;;;4947589;29;20059;-71
2022/03/21 01:09:47;;;;;;;41.80;27.50;;;2.60;99.90;;;;;;4966349;28;20054;-71
2022/03/21 01:12:14;;;;;;;39.17;24.83;;;2.60;99.90;;;;;;4952424;29;20051;-71
2022/03/21 01:14:41;;;;;;;42.70;25.73;;;2.50;99.90;;;;;;4943973;29;20049;-70
2022/03/21 01:17:08;;;;;;;41.35;27.80;;;2.60;99.90;;;;;;4948993;28;20050;-71
2022/03/21 01:19:35;;;;;;;45.10;29.00;;;2.60;99.90;;;;;;4964867;28;20103;-71
2022/03/21 01:22:06;;;;;;;41.97;28.40;;;2.60;99.90;;;;;;4936835;29;20052;-71
2022/03/21 01:24:35;;;;;;;43.08;28.08;;;2.50;99.90;;;;;;4968179;28;20046;-71
2022/03/21 01:27:03;;;;;;;50.15;29.48;;;2.50;99.90;;;;;;4936739;29;20135;-71
2022/03/21 01:29:30;;;;;;;38.67;26.67;;;2.50;99.90;;;;;;4951231;29;20063;-71
2022/03/21 01:31:57;;;;;;;44.05;27.50;;;2.40;99.90;;;;;;4949609;29;20503;-71
2022/03/21 01:34:24;;;;;;;42.42;29.40;;;2.30;99.90;;;;;;4952166;29;20059;-71
2022/03/21 01:36:51;;;;;;;46.90;28.20;;;2.30;99.90;;;;;;4953405;29;20047;-71
2022/03/21 01:39:18;;;;;;;43.22;28.00;;;2.30;99.90;;;;;;4955908;28;20074;-71
2022/03/21 01:41:45;;;;;;;40.53;27.80;;;2.20;99.90;;;;;;4951545;29;20055;-71
2022/03/21 01:44:12;;;;;;;44.13;27.27;;;2.20;99.90;;;;;;4973030;28;20047;-72
2022/03/21 01:46:39;;;;;;;42.17;26.20;;;2.10;99.90;;;;;;4954651;28;20054;-71
2022/03/21 01:49:07;;;;;;;41.67;27.52;;;2.10;99.90;;;;;;4949894;28;20047;-71
2022/03/21 01:51:36;;;;;;;47.42;28.55;;;2.10;99.90;;;;;;4950388;29;20055;-71
2022/03/21 01:56:59;;;;;;;44.95;29.15;;;2.00;99.90;;;;;;4918208;29;20130;-71
2022/03/21 01:59:26;;;;;;;40.70;27.38;;;1.90;99.90;;;;;;4968201;28;20050;-71
2022/03/21 02:01:53;;;;;;;43.03;28.20;;;1.90;99.90;;;;;;4966965;28;20074;-71
2022/03/21 02:04:20;;;;;;;42.95;26.30;;;1.90;99.90;;;;;;4966766;28;20106;-71
2022/03/21 02:06:47;;;;;;;49.38;28.38;;;1.90;99.90;;;;;;4951670;28;20051;-70
2022/03/21 02:09:14;;;;;;;41.00;27.83;;;1.80;99.90;;;;;;4938560;29;20073;-71
2022/03/21 02:11:41;;;;;;;42.08;28.05;;;1.80;99.90;;;;;;4952986;29;20130;-71
2022/03/21 02:14:09;;;;;;;44.85;29.45;;;1.80;99.90;;;;;;4966600;28;20055;-71
2022/03/21 02:16:37;;;;;;;45.90;28.05;;;1.70;99.90;;;;;;4950682;29;20047;-71
2022/03/21 02:19:29;;;;;;;44.78;30.02;;;1.70;99.90;;;;;;4967451;28;20078;-70
2022/03/21 02:22:14;;;;;;;44.42;29.05;;;1.70;99.90;;;;;;4935518;29;20074;-71
2022/03/21 02:24:50;;;;;;;46.67;29.10;;;1.70;99.90;;;;;;4942439;28;20452;-71
2022/03/21 02:27:18;;;;;;;50.33;31.10;;;1.70;99.90;;;;;;4949516;29;20110;-70
2022/03/21 02:29:47;;;;;;;45.58;29.65;;;1.70;99.90;;;;;;4947644;29;20055;-71
2022/03/21 02:32:14;;;;;;;45.60;29.60;;;1.60;99.90;;;;;;4936899;29;20502;-71
2022/03/21 02:34:41;;;;;;;49.10;29.17;;;1.60;99.90;;;;;;4942136;29;20422;-71
2022/03/21 02:37:10;;;;;;;43.53;27.80;;;1.60;99.90;;;;;;4965391;28;20052;-71
2022/03/21 02:39:37;;;;;;;43.10;28.98;;;1.50;99.90;;;;;;4936014;29;20432;-71
2022/03/21 02:42:04;;;;;;;48.63;29.23;;;1.50;99.90;;;;;;4950013;29;20501;-71
2022/03/21 02:44:38;;;;;;;41.42;28.35;;;1.50;99.90;;;;;;4960396;28;20044;-71
2022/03/21 02:47:05;;;;;;;47.13;29.42;;;1.40;99.90;;;;;;4950997;28;20051;-71
2022/03/21 02:49:34;;;;;;;49.17;30.98;;;1.40;99.90;;;;;;4967710;28;20145;-70
2022/03/21 02:52:04;;;;;;;46.03;28.92;;;1.30;99.90;;;;;;4943537;28;20483;-71
2022/03/21 02:54:31;;;;;;;45.28;26.98;;;1.30;99.90;;;;;;4936653;29;20479;-71
2022/03/21 02:56:59;;;;;;;45.15;29.02;;;1.30;99.90;;;;;;4936105;29;20058;-71
2022/03/21 02:59:26;;;;;;;52.85;31.05;;;1.30;99.90;;;;;;4956083;29;20054;-71
2022/03/21 03:01:54;;;;;;;44.10;28.50;;;1.30;99.90;;;;;;4969100;28;20590;-71
2022/03/21 03:04:23;;;;;;;41.70;26.80;;;1.20;99.90;;;;;;4967865;28;20130;-71
2022/03/21 03:06:50;;;;;;;48.63;28.92;;;1.20;99.90;;;;;;4951601;29;20535;-71
2022/03/21 03:09:17;;;;;;;43.05;27.33;;;1.20;99.90;;;;;;4951634;29;20052;-71
2022/03/21 03:11:44;;;;;;;48.47;29.75;;;1.30;99.90;;;;;;4971442;28;20051;-71
2022/03/21 03:14:10;;;;;;;46.33;28.80;;;1.20;99.90;;;;;;4945610;29;20055;-70
2022/03/21 03:16:37;;;;;;;45.58;28.58;;;1.20;99.90;;;;;;4951399;29;20067;-70
2022/03/21 03:19:05;;;;;;;47.47;29.33;;;1.10;99.90;;;;;;4951579;29;20067;-71
2022/03/21 03:21:43;;;;;;;44.30;28.63;;;1.10;99.90;;;;;;4968608;28;20052;-70
2022/03/21 03:24:10;;;;;;;45.80;27.92;;;1.10;99.90;;;;;;4951842;28;20047;-71
2022/03/21 03:26:37;;;;;;;45.45;28.92;;;1.10;99.90;;;;;;4966063;28;20519;-75
2022/03/21 03:29:04;;;;;;;44.35;27.75;;;1.10;99.90;;;;;;4970598;28;20090;-70
2022/03/21 03:31:36;;;;;;;44.17;28.70;;;1.10;99.90;;;;;;4937528;29;20047;-71
2022/03/21 03:34:03;;;;;;;50.03;29.40;;;1.00;99.90;;;;;;4952807;29;20110;-71
2022/03/21 03:36:30;;;;;;;41.75;26.65;;;1.00;99.90;;;;;;4957961;28;20047;-71
2022/03/21 03:38:57;;;;;;;44.30;28.92;;;1.00;99.90;;;;;;4951964;28;20553;-71
2022/03/21 03:41:24;;;;;;;45.92;27.80;;;0.90;99.90;;;;;;4954045;29;20043;-71
2022/03/21 03:43:51;;;;;;;41.33;27.40;;;1.00;99.90;;;;;;4954200;29;20048;-70
2022/03/21 03:46:18;;;;;;;47.35;29.02;;;1.00;99.90;;;;;;4968779;28;20082;-70
2022/03/21 03:48:46;;;;;;;43.97;26.35;;;1.00;99.90;;;;;;4977043;28;20055;-71
2022/03/21 03:51:13;;;;;;;41.90;25.75;;;0.90;99.90;;;;;;4961178;28;20399;-71
2022/03/21 03:53:40;;;;;;;49.70;28.83;;;0.90;99.90;;;;;;4952071;28;20058;-71
2022/03/21 03:56:07;;;;;;;44.83;27.73;;;0.90;99.90;;;;;;4947558;28;20554;-71
2022/03/21 03:58:37;;;;;;;48.65;29.15;;;0.90;99.90;;;;;;4968282;28;20043;-71
2022/03/21 04:01:04;;;;;;;44.40;28.95;;;0.90;99.90;;;;;;4942327;29;20050;-71
2022/03/21 04:03:47;;;;;;;45.00;27.48;;;0.80;99.90;;;;;;4948376;29;20071;-71
2022/03/21 04:06:18;;;;;;;45.28;27.80;;;0.80;99.90;;;;;;4966562;28;20070;-70
2022/03/21 04:08:47;;;;;;;43.63;27.05;;;0.70;99.90;;;;;;4931169;29;20054;-71
2022/03/21 04:11:14;;;;;;;49.42;30.38;;;0.70;99.90;;;;;;4945595;29;20055;-71
2022/03/21 04:13:41;;;;;;;42.03;25.60;;;0.70;99.90;;;;;;4936407;29;20048;-70
2022/03/21 04:16:08;;;;;;;41.63;26.58;;;0.70;99.90;;;;;;4949525;29;20065;-71
2022/03/21 04:18:35;;;;;;;47.35;27.02;;;0.60;99.90;;;;;;4935879;29;20204;-71
2022/03/21 04:21:22;;;;;;;45.30;26.75;;;0.60;99.90;;;;;;4939018;29;20043;-71
2022/03/21 04:23:49;;;;;;;46.50;27.60;;;0.60;99.90;;;;;;4951340;28;20447;-71
2022/03/21 04:26:19;;;;;;;48.22;28.60;;;0.60;99.90;;;;;;4947618;29;20059;-71
2022/03/21 04:28:46;;;;;;;47.00;28.30;;;0.60;99.90;;;;;;4947650;29;20053;-70
2022/03/21 04:31:13;;;;;;;47.60;28.85;;;0.60;99.90;;;;;;4949801;29;20392;-71
2022/03/21 04:33:40;;;;;;;44.72;27.92;;;0.50;99.90;;;;;;4968170;28;20070;-71
2022/03/21 04:36:07;;;;;;;41.97;27.92;;;0.50;99.90;;;;;;4948448;29;20062;-70
2022/03/21 04:38:35;;;;;;;46.20;27.83;;;0.50;99.90;;;;;;4951780;29;20043;-70
2022/03/21 04:41:02;;;;;;;48.67;28.33;;;0.50;99.90;;;;;;4950398;29;20414;-70
2022/03/21 04:43:29;;;;;;;43.28;27.98;;;0.50;99.90;;;;;;4960979;28;20058;-70
2022/03/21 04:45:56;;;;;;;47.00;29.42;;;0.50;99.90;;;;;;4930542;29;20047;-70
2022/03/21 04:48:23;;;;;;;45.45;28.90;;;0.50;99.90;;;;;;4941360;29;20051;-71
2022/03/21 04:50:52;;;;;;;45.00;28.98;;;0.40;99.90;;;;;;4947572;29;20072;-70
2022/03/21 04:53:18;;;;;;;49.50;29.60;;;0.40;99.90;;;;;;4938508;28;20039;-71
2022/03/21 04:55:45;;;;;;;45.08;28.85;;;0.40;99.90;;;;;;4935675;29;20059;-70
2022/03/21 04:58:13;;;;;;;45.38;27.45;;;0.50;99.90;;;;;;4954264;28;20052;-71
2022/03/21 05:00:44;;;;;;;47.00;28.45;;;0.40;99.90;;;;;;4938773;29;20056;-71
2022/03/21 05:03:11;;;;;;;52.90;30.88;;;0.40;99.90;;;;;;4937747;29;20056;-71
2022/03/21 05:05:43;;;;;;;43.42;26.80;;;0.40;99.90;;;;;;4936163;29;20053;-70
2022/03/21 05:08:10;;;;;;;43.00;27.20;;;0.40;99.90;;;;;;4952727;29;20474;-71
2022/03/21 05:10:38;;;;;;;47.90;28.45;;;0.30;99.90;;;;;;4944305;29;20078;-71
2022/03/21 05:13:07;;;;;;;46.83;29.83;;;0.40;99.90;;;;;;4942807;29;20098;-71
2022/03/21 05:15:34;;;;;;;43.05;27.38;;;0.40;99.90;;;;;;4947362;29;20050;-71
2022/03/21 05:18:01;;;;;;;44.38;27.27;;;0.40;99.90;;;;;;4941805;29;20061;-70
2022/03/21 05:20:28;;;;;;;49.67;28.02;;;0.40;99.90;;;;;;4946965;28;20134;-71
2022/03/21 05:31:12;;;;;;;48.08;28.88;;;0.30;99.90;;;;;;4937287;29;20062;-71
2022/03/21 05:36:47;;;;;;;47.95;31.10;;;0.30;99.90;;;;;;4893873;29;20052;-71
2022/03/21 05:39:14;;;;;;;47.85;28.83;;;0.30;99.90;;;;;;4875658;29;20089;-71
2022/03/21 05:41:41;;;;;;;50.58;30.02;;;0.30;99.90;;;;;;4910636;29;20070;-70
2022/03/21 05:44:09;;;;;;;52.13;31.17;;;0.30;99.90;;;;;;4951115;29;20059;-71
2022/03/21 05:46:35;;;;;;;55.00;31.83;;;0.30;99.90;;;;;;4940717;29;20043;-72
2022/03/21 05:49:03;;;;;;;48.25;30.77;;;0.30;99.90;;;;;;4943099;29;20045;-70
2022/03/21 05:51:32;;;;;;;51.60;31.67;;;0.30;99.90;;;;;;4945243;29;20051;-71
2022/03/21 05:54:00;;;;;;;47.22;29.63;;;0.30;99.90;;;;;;4966252;28;20400;-71
2022/03/21 05:56:28;;;;;;;53.90;33.13;;;0.40;99.90;;;;;;4928720;29;20055;-71
2022/03/21 05:58:56;;;;;;;52.28;31.90;;;0.40;99.90;;;;;;4967151;28;20061;-71
2022/03/21 06:01:23;;;;;;;61.92;37.33;;;0.40;99.90;;;;;;4956832;28;20055;-71
2022/03/21 06:03:54;;;;;;;64.07;37.85;;;0.40;99.90;;;;;;4921817;29;20055;-71
2022/03/21 06:06:22;;;;;;;58.40;35.63;;;0.50;99.90;;;;;;4936171;29;20126;-71
2022/03/21 06:08:51;;;;;;;58.30;36.25;;;0.50;99.90;;;;;;4952690;29;20051;-71
2022/03/21 06:11:19;;;;;;;59.58;35.65;;;0.50;99.90;;;;;;4965383;28;20051;-71
2022/03/21 06:13:47;;;;;;;58.88;36.65;;;0.50;99.90;;;;;;4936200;29;20113;-70
2022/03/21 06:16:15;;;;;;;60.08;35.75;;;0.60;99.90;;;;;;4940562;29;20144;-70
2022/03/21 06:18:42;;;;;;;60.10;36.97;;;0.60;99.90;;;;;;4940629;29;20062;-70
2022/03/21 06:21:09;;;;;;;61.55;37.25;;;0.70;99.90;;;;;;4945053;29;20047;-70
2022/03/21 06:23:36;;;;;;;59.58;36.97;;;0.60;99.90;;;;;;4941984;28;20046;-71
2022/03/21 06:26:04;;;;;;;59.15;35.50;;;0.70;99.90;;;;;;4931582;29;20225;-70
2022/03/21 06:28:31;;;;;;;59.38;35.30;;;0.70;99.90;;;;;;4965946;28;20403;-70
2022/03/21 06:30:57;;;;;;;66.18;36.08;;;0.80;99.90;;;;;;4938094;28;20689;-70
2022/03/21 06:33:27;;;;;;;67.28;37.58;;;0.80;99.90;;;;;;4954863;28;20043;-71
2022/03/21 06:35:54;;;;;;;;;;;0.90;99.90;;;;;;4969433;28;20082;-70
2022/03/21 06:38:21;;;;;;;58.72;35.30;;;0.90;99.90;;;;;;4951335;29;19926;-70
2022/03/21 06:40:49;;;;;;;63.15;37.17;;;1.00;99.90;;;;;;4955370;29;20059;-70
2022/03/21 06:43:16;;;;;;;67.32;38.80;;;1.00;99.90;;;;;;4967564;28;20098;-70
2022/03/21 06:45:47;;;;;;;63.10;39.10;;;1.10;99.90;;;;;;4950473;29;20058;-70
2022/03/21 06:48:14;;;;;;;68.90;41.95;;;1.10;99.90;;;;;;4962749;28;20086;-70
2022/03/21 06:50:41;;;;;;;646.95;420.42;;;1.20;99.90;;;;;;4928690;29;20062;-68
2022/03/21 06:53:08;;;;;;;260.83;152.20;;;1.40;99.90;;;;;;4956540;28;20055;-70
2022/03/21 06:55:35;;;;;;;147.55;84.63;;;1.40;99.90;;;;;;4910113;29;20055;-66
2022/03/21 06:58:03;;;;;;;111.78;65.93;;;1.40;99.90;;;;;;4968785;28;20383;-67
2022/03/21 07:00:31;;;;;;;87.55;51.15;;;1.50;99.90;;;;;;4952037;29;20438;-71
2022/03/21 07:02:58;;;;;;;87.63;50.88;;;1.60;99.90;;;;;;4969290;28;20400;-68
2022/03/21 07:05:28;;;;;;;81.40;48.58;;;1.70;99.90;;;;;;4965557;28;20135;-68
2022/03/21 07:07:56;;;;;;;80.35;46.88;;;1.90;99.90;;;;;;4970236;28;20137;-67
2022/03/21 07:10:23;;;;;;;85.88;53.42;;;2.00;99.90;;;;;;4949271;29;20074;-69
2022/03/21 07:12:50;;;;;;;87.93;51.60;;;2.20;99.90;;;;;;4950577;29;20051;-65
2022/03/21 07:15:17;;;;;;;85.60;51.42;;;2.40;99.90;;;;;;4952883;29;20051;-69
2022/03/21 07:17:43;;;;;;;84.28;48.53;;;2.50;99.90;;;;;;4951990;28;20065;-68
2022/03/21 07:20:11;;;;;;;78.28;46.17;;;2.70;99.90;;;;;;4947064;28;20081;-69
2022/03/21 07:22:39;;;;;;;75.03;46.78;;;2.70;99.90;;;;;;4936298;28;20062;-69
2022/03/21 07:25:07;;;;;;;78.82;47.10;;;2.80;99.90;;;;;;4945164;29;20495;-68
2022/03/21 07:27:34;;;;;;;77.35;47.67;;;2.90;99.90;;;;;;4936816;28;20130;-69
2022/03/21 07:30:00;;;;;;;76.65;46.65;;;3.10;99.90;;;;;;4945116;29;20044;-68
2022/03/21 07:32:27;;;;;;;77.10;47.42;;;3.10;99.90;;;;;;4955107;28;20059;-69
2022/03/21 07:34:54;;;;;;;78.72;47.78;;;3.20;99.90;;;;;;4941419;29;20052;-68
2022/03/21 07:37:21;;;;;;;81.43;48.10;;;3.30;99.90;;;;;;4945930;28;20062;-67
2022/03/21 07:39:48;;;;;;;73.47;47.17;;;3.40;99.90;;;;;;4949972;28;20047;-76
2022/03/21 07:42:16;;;;;;;78.35;47.03;;;3.60;99.90;;;;;;4935282;29;20067;-74
2022/03/21 07:47:29;;;;;;;73.50;46.75;;;3.80;99.90;;;;;;4958307;28;20058;-75
2022/03/21 07:49:56;;;;;;;77.90;48.88;;;3.90;99.90;;;;;;4964986;28;20048;-74
2022/03/21 07:52:23;;;;;;;88.70;51.33;;;4.00;99.90;;;;;;4955701;28;20055;-73
2022/03/21 07:54:52;;;;;;;76.85;49.45;;;4.10;99.90;;;;;;4951518;28;20104;-73
2022/03/21 07:57:20;;;;;;;78.00;48.60;;;4.30;99.90;;;;;;4947071;29;20048;-76
2022/03/21 07:59:47;;;;;;;74.80;46.03;;;4.50;99.90;;;;;;4950476;29;20172;-78
2022/03/21 08:02:14;;;;;;;73.80;47.67;;;4.60;99.90;;;;;;4953363;28;20043;-74
2022/03/21 08:04:42;;;;;;;106.80;68.40;;;4.70;99.90;;;;;;4963669;28;20048;-74
2022/03/21 08:07:16;;;;;;;90.55;50.20;;;4.90;99.90;;;;;;4967564;28;20123;-73
2022/03/21 08:09:43;;;;;;;76.50;49.77;;;5.10;99.90;;;;;;4942623;29;20039;-69
2022/03/21 08:12:10;;;;;;;77.35;47.63;;;5.30;99.90;;;;;;4965264;28;20047;-72
2022/03/21 08:14:37;;;;;;;73.50;49.17;;;5.40;99.90;;;;;;4934447;29;20051;-70
2022/03/21 08:17:04;;;;;;;73.43;49.85;;;5.60;99.90;;;;;;4948284;28;20772;-72
2022/03/21 08:19:31;;;;;;;72.68;47.20;;;5.70;99.90;;;;;;4935283;29;20070;-74
2022/03/21 08:21:58;;;;;;;70.82;48.10;;;5.80;99.90;;;;;;4952645;28;20059;-70
2022/03/21 08:24:25;;;;;;;77.10;50.15;;;5.90;99.90;;;;;;4941221;29;20051;-73
2022/03/21 08:26:54;;;;;;;126.22;87.82;;;6.10;99.90;;;;;;4951998;29;20087;-66
2022/03/21 08:29:21;;;;;;;119.50;85.40;;;6.20;99.90;;;;;;4948864;28;20043;-69
2022/03/21 08:31:48;;;;;;;75.30;53.58;;;6.40;99.90;;;;;;4948746;29;20043;-68
2022/03/21 08:34:15;;;;;;;72.78;51.03;;;6.40;99.90;;;;;;4944454;28;20071;-67
2022/03/21 08:36:42;;;;;;;68.25;49.88;;;6.50;99.90;;;;;;4941779;28;20515;-67
2022/03/21 08:39:11;;;;;;;75.10;49.15;;;6.50;99.90;;;;;;4950491;29;20379;-68
2022/03/21 08:41:38;;;;;;;85.30;57.03;;;6.60;99.90;;;;;;4949566;28;20137;-70
2022/03/21 08:44:05;;;;;;;70.97;48.05;;;6.70;99.90;;;;;;4928491;29;20066;-69
2022/03/21 08:46:32;;;;;;;78.72;54.90;;;6.80;99.90;;;;;;4965700;28;20043;-70
2022/03/21 08:52:01;;;;;;;69.75;46.80;;;7.10;99.90;;;;;;4956877;28;20075;-68
2022/03/21 08:54:28;;;;;;;65.63;46.78;;;7.10;99.90;;;;;;4949645;28;20103;-71
2022/03/21 08:56:55;;;;;;;70.70;48.20;;;7.20;99.90;;;;;;4958960;28;20048;-70
2022/03/21 08:59:22;;;;;;;65.75;45.10;;;7.30;99.90;;;;;;4952782;29;20679;-69
2022/03/21 09:01:49;;;;;;;64.63;45.85;;;7.40;99.90;;;;;;4953593;28;20054;-69
2022/03/21 09:04:16;;;;;;;66.88;48.25;;;7.50;99.90;;;;;;4955277;28;20055;-71
2022/03/21 09:06:44;;;;;;;61.45;43.92;;;7.60;99.90;;;;;;4950630;28;20117;-70
2022/03/21 09:09:10;;;;;;;86.18;60.40;;;7.70;99.90;;;;;;4951985;29;20051;-74
2022/03/21 09:11:38;;;;;;;156.50;105.30;;;7.80;99.90;;;;;;4919918;29;20049;-72
2022/03/21 09:14:07;;;;;;;77.18;59.70;;;7.90;99.90;;;;;;4936762;29;20083;-68
2022/03/21 09:16:34;;;;;;;112.03;80.05;;;8.10;99.90;;;;;;4947206;28;20550;-69
2022/03/21 09:19:02;;;;;;;66.35;44.50;;;8.20;99.90;;;;;;4946109;29;20058;-69
2022/03/21 09:21:29;;;;;;;65.25;44.15;;;8.40;99.90;;;;;;4952808;28;20055;-72
2022/03/21 09:23:56;;;;;;;57.95;41.80;;;8.50;99.90;;;;;;4940762;29;20138;-69
2022/03/21 09:26:23;;;;;;;54.65;39.35;;;8.60;99.90;;;;;;4951230;29;20044;-65
2022/03/21 09:28:59;;;;;;;54.70;38.80;;;8.70;99.90;;;;;;4933325;29;20048;-68
2022/03/21 09:31:27;;;;;;;50.47;35.08;;;9.00;98.40;;;;;;4950342;29;20047;-68
2022/03/21 09:34:12;;;;;;;47.67;34.97;;;9.40;96.60;;;;;;4943188;29;20051;-68
2022/03/21 09:36:39;;;;;;;43.03;33.97;;;9.90;93.40;;;;;;4951621;29;20415;-69
2022/03/21 09:39:06;;;;;;;45.95;30.73;;;10.00;92.00;;;;;;4953324;28;20052;-69
2022/03/21 09:41:33;;;;;;;36.50;27.27;;;9.90;90.90;;;;;;4953960;28;20051;-70
2022/03/21 09:44:03;;;;;;;33.63;24.92;;;9.90;91.00;;;;;;4952917;29;20083;-70
2022/03/21 09:46:30;;;;;;;36.30;25.27;;;10.00;90.80;;;;;;4937316;29;20046;-70
2022/03/21 09:48:58;;;;;;;37.42;25.13;;;10.10;90.80;;;;;;4954165;28;20061;-70
2022/03/21 09:51:30;;;;;;;32.60;24.92;;;10.20;90.40;;;;;;4942117;29;20555;-70
2022/03/21 09:53:58;;;;;;;34.08;24.65;;;10.30;87.20;;;;;;4964693;28;20089;-70
2022/03/21 09:56:25;;;;;;;30.52;22.30;;;10.40;87.20;;;;;;4936177;29;20050;-70
2022/03/21 09:59:01;;;;;;;37.60;24.80;;;10.40;88.00;;;;;;4944582;29;20046;-70
2022/03/21 10:01:32;;;;;;;35.22;23.77;;;10.40;85.90;;;;;;4946416;29;20066;-70
2022/03/21 10:04:00;;;;;;;33.60;22.05;;;10.50;82.20;;;;;;4948795;29;20043;-70
2022/03/21 10:06:34;;;;;;;32.30;21.73;;;10.50;83.80;;;;;;4951778;28;20051;-70
2022/03/21 10:09:10;;;;;;;36.55;23.83;;;10.80;83.90;;;;;;4967720;28;20070;-70
2022/03/21 10:11:37;;;;;;;28.00;20.30;;;10.90;82.80;;;;;;4966219;28;20047;-71
2022/03/21 10:14:40;;;;;;;28.65;21.80;;;11.10;85.10;;;;;;4963758;28;20051;-70
2022/03/21 10:17:12;;;;;;;29.65;21.83;;;11.10;80.70;;;;;;4875493;29;20045;-68
2022/03/21 10:19:51;;;;;;;30.05;21.33;;;11.10;81.90;;;;;;4943931;28;20055;-67
2022/03/21 10:22:22;;;;;;;28.65;19.67;;;11.30;80.30;;;;;;4943149;29;20062;-69
2022/03/21 10:24:50;;;;;;;30.23;20.52;;;11.40;76.90;;;;;;4951506;28;20059;-68
2022/03/21 10:27:36;;;;;;;26.45;17.83;;;11.40;77.80;;;;;;4936027;29;20106;-69
2022/03/21 10:30:08;;;;;;;27.20;18.67;;;11.40;77.00;;;;;;4953408;28;20495;-69
2022/03/21 10:32:46;;;;;;;28.60;18.83;;;11.50;78.20;;;;;;4937096;29;20051;-69
2022/03/21 10:35:15;;;;;;;23.73;16.50;;;11.70;77.50;;;;;;4936238;28;20507;-68
2022/03/21 10:37:56;;;;;;;25.90;18.43;;;11.70;80.90;;;;;;4941338;29;20518;-69
2022/03/21 10:40:30;;;;;;;28.25;18.70;;;11.80;78.40;;;;;;4966880;28;20294;-69
2022/03/21 10:43:14;;;;;;;27.30;17.48;;;11.80;75.20;;;;;;4952371;29;20058;-69
2022/03/21 10:45:46;;;;;;;22.88;16.38;;;12.00;74.40;;;;;;4953693;28;20078;-75
2022/03/21 10:48:17;;;;;;;25.73;18.58;;;12.10;72.50;;;;;;4968185;28;20055;-69
2022/03/21 10:50:46;;;;;;;29.48;19.45;;;12.10;75.00;;;;;;4952109;29;20105;-68
2022/03/21 10:53:21;;;;;;;22.65;16.63;;;12.20;74.70;;;;;;4973388;28;20067;-69
2022/03/21 10:55:49;;;;;;;25.95;18.35;;;12.20;73.30;;;;;;4950795;29;20138;-68
2022/03/21 10:58:33;;;;;;;29.00;17.70;;;12.20;74.50;;;;;;4950126;29;20078;-69
2022/03/21 11:01:26;;;;;;;22.90;17.13;;;12.30;72.90;;;;;;4965783;28;20091;-69
2022/03/21 11:04:00;;;;;;;27.25;18.45;;;12.30;70.90;;;;;;4937473;29;20047;-69
2022/03/21 11:06:27;;;;;;;24.73;18.63;;;12.40;72.20;;;;;;4932022;29;20111;-70
2022/03/21 11:08:55;;;;;;;25.55;18.60;;;12.40;73.20;;;;;;4962856;28;20403;-69
2022/03/21 11:11:22;;;;;;;25.90;18.95;;;12.50;74.30;;;;;;4920555;29;20048;-69
2022/03/21 11:13:50;;;;;;;25.15;18.33;;;12.50;73.90;;;;;;4951693;28;20055;-65
2022/03/21 11:16:18;;;;;;;23.70;17.25;;;12.90;74.50;;;;;;4952759;29;20047;-63
2022/03/21 11:18:48;;;;;;;26.55;18.58;;;13.40;72.20;;;;;;4939413;29;20074;-64
2022/03/21 11:21:18;;;;;;;32.72;22.00;;;13.40;71.40;;;;;;4972404;28;20059;-63
2022/03/21 11:23:45;;;;;;;31.05;22.08;;;13.60;71.40;;;;;;4958581;28;20538;-65
2022/03/21 11:26:19;;;;;;;25.02;18.08;;;13.60;71.60;;;;;;4950380;29;20050;-65
2022/03/21 11:29:06;;;;;;;28.05;18.15;;;13.60;70.10;;;;;;4923640;29;20590;-65
2022/03/21 11:32:00;;;;;;;32.70;19.15;;;13.60;70.90;;;;;;4955030;29;20505;-65
2022/03/21 11:34:33;;;;;;;24.55;18.92;;;13.60;69.80;;;;;;4955469;29;20047;-66
2022/03/21 11:37:00;;;;;;;26.30;19.00;;;13.50;71.20;;;;;;4963159;28;20055;-65
2022/03/21 11:39:27;;;;;;;27.73;20.02;;;13.30;73.10;;;;;;4954746;29;20043;-67
2022/03/21 11:42:06;;;;;;;27.50;17.73;;;13.30;73.60;;;;;;4939113;29;20082;-67
2022/03/21 11:44:33;;;;;;;29.77;19.55;;;13.30;74.10;;;;;;4952334;28;20054;-67
2022/03/21 11:47:22;;;;;;;26.95;19.08;;;13.40;74.00;;;;;;4947726;28;20160;-68
2022/03/21 11:49:50;;;;;;;30.15;20.50;;;13.60;72.40;;;;;;4953381;28;20069;-68
2022/03/21 11:52:17;;;;;;;29.13;20.52;;;13.60;73.20;;;;;;4961244;28;20047;-65
2022/03/21 11:54:45;;;;;;;27.33;19.95;;;13.60;72.40;;;;;;4951389;29;20099;-65
2022/03/21 11:57:18;;;;;;;25.27;18.65;;;14.00;70.10;;;;;;4952519;29;20061;-60
2022/03/21 11:59:47;;;;;;;27.08;18.67;;;14.20;70.20;;;;;;4950841;29;20047;-61
2022/03/21 12:02:14;;;;;;;28.25;18.85;;;14.20;71.60;;;;;;4952914;29;20047;-62
2022/03/21 12:04:41;;;;;;;27.48;19.52;;;14.30;69.80;;;;;;4953685;29;20510;-66
2022/03/21 12:07:14;;;;;;;27.40;19.10;;;14.30;70.40;;;;;;4964664;28;20043;-67
2022/03/21 12:09:41;;;;;;;31.50;21.00;;;14.20;68.70;;;;;;4946985;28;20411;-69
2022/03/21 12:12:12;;;;;;;26.38;18.15;;;14.10;70.70;;;;;;4942152;29;20399;-66
2022/03/21 12:14:45;;;;;;;23.98;18.15;;;14.00;70.50;;;;;;4937785;29;20063;-67
2022/03/21 12:17:12;;;;;;;25.05;18.20;;;13.80;68.90;;;;;;4952781;29;20039;-72
2022/03/21 12:19:45;;;;;;;27.27;19.75;;;13.70;68.80;;;;;;4944379;29;20234;-69
2022/03/21 12:22:33;;;;;;;23.33;17.63;;;13.80;71.60;;;;;;4945954;28;20047;-70
2022/03/21 12:25:15;;;;;;;26.02;19.00;;;13.80;70.00;;;;;;4971469;28;20051;-71
2022/03/21 12:27:47;;;;;;;25.55;17.65;;;13.90;71.50;;;;;;4952400;29;20058;-73
2022/03/21 12:32:48;;;;;;;64.15;51.03;;;14.00;70.50;;;;;;4936347;29;20065;-70
2022/03/21 12:35:45;;;;;;;26.52;20.00;;;14.00;71.00;;;;;;4948143;29;20126;-68
2022/03/21 12:38:22;;;;;;;26.80;19.50;;;14.00;69.50;;;;;;4937794;29;20048;-71
2022/03/21 12:41:03;;;;;;;25.15;18.35;;;14.00;70.10;;;;;;4944002;29;20039;-70
2022/03/21 12:43:41;;;;;;;24.90;18.73;;;13.90;71.40;;;;;;4953575;29;20057;-70
2022/03/21 12:46:12;;;;;;;31.00;18.80;;;13.90;71.80;;;;;;4954857;28;20055;-70
2022/03/21 12:48:43;;;;;;;27.95;18.55;;;13.90;70.90;;;;;;4948569;28;20092;-70
2022/03/21 12:51:13;;;;;;;25.98;18.20;;;13.90;71.00;;;;;;4935307;29;20050;-70
2022/03/21 12:53:52;;;;;;;25.60;18.90;;;14.00;70.60;;;;;;4935447;29;20047;-69
2022/03/21 12:56:19;;;;;;;23.98;18.67;;;14.00;72.70;;;;;;4953576;28;20051;-70
2022/03/21 12:58:49;;;;;;;24.42;18.42;;;14.10;70.20;;;;;;4951470;29;20053;-71
2022/03/21 13:01:18;;;;;;;26.38;18.58;;;14.10;68.80;;;;;;4949463;28;20495;-71
2022/03/21 13:03:45;;;;;;;23.65;18.80;;;14.20;69.70;;;;;;4957386;28;20044;-71
2022/03/21 13:11:39;;;;;;;27.05;17.70;;;14.00;68.90;;;;;;4948593;29;20074;-72